Time;durP1;ratioP1;P1;durP2;ratioP2;P2;SDS_P1;SDS_P2;PMS_P1;PMS_P2;Temp;Humidity;BMP_temperature;BMP_pressure;BME280_temperature;BME280_humidity;BME280_pressure;Samples;Min_cycle;Max_cycle;Signal;HPM_P1;HPM_P2
2022/01/31 00:02:26;;;;;;;33.33;6.88;;;;;;;5.79;100.00;101318.38;5086601;28;20038;-72
2022/01/31 00:04:53;;;;;;;29.67;6.68;;;;;;;5.73;100.00;101312.00;5080646;28;20145;-71
2022/01/31 00:07:18;;;;;;;26.95;6.07;;;;;;;5.80;100.00;101296.38;5081174;28;20045;-72
2022/01/31 00:09:45;;;;;;;25.23;5.72;;;;;;;5.73;100.00;101306.56;5080089;28;20035;-71
2022/01/31 00:12:13;;;;;;;31.15;6.15;;;;;;;5.62;100.00;101299.22;5083026;28;20909;-72
2022/01/31 00:14:46;;;;;;;26.77;5.28;;;;;;;5.79;100.00;101305.63;5081731;28;20063;-72
2022/01/31 00:17:13;;;;;;;32.47;5.15;;;;;;;5.75;100.00;101290.81;5081365;28;20019;-72
2022/01/31 00:19:44;;;;;;;26.35;5.20;;;;;;;5.84;100.00;101270.34;5082634;28;20030;-72
2022/01/31 00:22:11;;;;;;;32.42;5.00;;;;;;;5.81;100.00;101278.97;5079525;28;20024;-71
2022/01/31 00:24:38;;;;;;;22.30;4.38;;;;;;;5.95;100.00;101254.22;5081912;28;20216;-71
2022/01/31 00:27:06;;;;;;;27.77;5.50;;;;;;;5.80;100.00;101249.28;5080971;28;20028;-70
2022/01/31 00:29:31;;;;;;;30.40;5.57;;;;;;;5.92;100.00;101220.16;5096566;28;20031;-69
2022/01/31 00:31:57;;;;;;;24.13;5.43;;;;;;;5.73;100.00;101208.63;5099267;28;20031;-71
2022/01/31 00:34:23;;;;;;;22.55;5.20;;;;;;;5.79;100.00;101185.91;5103134;28;20047;-70
2022/01/31 00:36:48;;;;;;;18.65;5.68;;;;;;;5.79;100.00;101191.34;5082134;28;20108;-69
2022/01/31 00:39:14;;;;;;;23.60;6.25;;;;;;;6.11;100.00;101188.16;5100964;28;20425;-70
2022/01/31 00:41:40;;;;;;;24.23;5.40;;;;;;;5.98;100.00;101172.94;5102148;28;20027;-70
2022/01/31 00:44:23;;;;;;;21.20;6.70;;;;;;;5.99;100.00;101168.34;5104093;28;20051;-70
2022/01/31 00:47:18;;;;;;;24.40;7.13;;;;;;;5.73;100.00;101172.44;5100775;28;20458;-70
2022/01/31 00:49:38;;;;;;;24.85;7.65;;;;;;;5.86;100.00;101172.16;5103255;28;20059;-71
2022/01/31 00:52:05;;;;;;;22.25;6.82;;;;;;;6.03;100.00;101142.28;5098690;28;20340;-70
2022/01/31 00:54:31;;;;;;;33.00;7.38;;;;;;;6.07;100.00;101146.16;5102209;28;20089;-70
2022/01/31 00:56:56;;;;;;;16.63;6.18;;;;;;;6.08;100.00;101126.03;5101183;28;20458;-71
2022/01/31 00:59:22;;;;;;;17.80;6.80;;;;;;;6.14;100.00;101118.78;5086480;28;20134;-70
2022/01/31 01:01:48;;;;;;;21.92;6.22;;;;;;;6.16;100.00;101119.38;5099853;28;20118;-71
2022/01/31 01:04:14;;;;;;;19.85;6.07;;;;;;;6.16;100.00;101094.88;5104045;28;20081;-71
2022/01/31 01:06:39;;;;;;;21.40;6.40;;;;;;;6.14;100.00;101110.63;5101757;28;20080;-70
2022/01/31 01:09:05;;;;;;;21.95;5.00;;;;;;;6.17;100.00;101088.34;5100901;28;20521;-70
2022/01/31 01:11:30;;;;;;;25.50;5.70;;;;;;;6.22;100.00;101081.09;5106119;28;20036;-69
2022/01/31 01:13:56;;;;;;;23.30;6.07;;;;;;;6.45;100.00;101071.09;5102230;28;20053;-71
2022/01/31 01:16:21;;;;;;;26.20;5.38;;;;;;;6.50;100.00;101063.00;5102972;28;20019;-71
2022/01/31 01:18:47;;;;;;;31.48;5.13;;;;;;;6.59;100.00;101057.94;5085199;28;20039;-70
2022/01/31 01:21:13;;;;;;;37.35;6.90;;;;;;;6.48;100.00;101043.38;5066740;28;20027;-69
2022/01/31 01:23:38;;;;;;;38.05;6.20;;;;;;;6.61;100.00;101061.28;5102731;28;20035;-71
2022/01/31 01:26:04;;;;;;;39.50;6.68;;;;;;;6.79;100.00;101047.34;5098408;28;20456;-70
2022/01/31 01:28:30;;;;;;;40.63;6.47;;;;;;;6.81;100.00;101044.38;5103417;28;20133;-70
2022/01/31 01:30:56;;;;;;;41.75;6.57;;;;;;;6.87;100.00;101040.66;5099301;28;20036;-70
2022/01/31 01:33:23;;;;;;;34.38;6.53;;;;;;;6.80;100.00;101037.25;5103109;28;20031;-69
2022/01/31 01:35:51;;;;;;;40.60;6.75;;;;;;;6.93;100.00;101034.16;5100951;28;20024;-70
2022/01/31 01:38:19;;;;;;;38.28;6.68;;;;;;;6.84;100.00;101035.69;5086827;28;20019;-70
2022/01/31 01:40:47;;;;;;;31.70;6.40;;;;;;;6.92;100.00;101032.53;5100253;28;20027;-70
2022/01/31 01:43:14;;;;;;;20.98;5.05;;;;;;;6.87;100.00;101032.47;5101878;28;20051;-69
2022/01/31 01:45:41;;;;;;;28.98;5.68;;;;;;;6.98;100.00;101004.28;5078413;28;20054;-69
2022/01/31 01:48:08;;;;;;;22.80;5.53;;;;;;;6.94;100.00;100992.22;5081409;28;20028;-69
2022/01/31 01:50:35;;;;;;;25.52;6.38;;;;;;;6.96;100.00;100995.50;5079576;28;20034;-69
2022/01/31 01:53:01;;;;;;;26.88;5.72;;;;;;;6.99;100.00;100995.00;5082579;28;20055;-69
2022/01/31 01:55:27;;;;;;;34.33;5.85;;;;;;;7.10;100.00;100989.66;5082056;28;20477;-70
2022/01/31 01:57:53;;;;;;;27.63;6.57;;;;;;;7.12;100.00;100993.78;5065294;28;20020;-69
2022/01/31 02:00:25;;;;;;;28.52;5.55;;;;;;;7.13;100.00;100984.53;5064613;28;20029;-69
2022/01/31 02:02:52;;;;;;;28.40;5.90;;;;;;;7.10;100.00;100970.56;5082666;28;20073;-69
2022/01/31 02:05:17;;;;;;;23.90;4.93;;;;;;;6.91;100.00;100981.81;5043351;28;20533;-70
2022/01/31 02:07:44;;;;;;;22.60;5.65;;;;;;;7.05;100.00;100967.78;5084197;28;20111;-70
2022/01/31 02:10:10;;;;;;;30.38;5.85;;;;;;;7.08;100.00;100964.56;5080669;28;20036;-70
2022/01/31 02:12:44;;;;;;;19.20;4.57;;;;;;;7.14;100.00;100966.25;5066315;28;20088;-71
2022/01/31 02:15:11;;;;;;;19.88;4.60;;;;;;;7.16;100.00;100981.28;5081106;28;20035;-69
2022/01/31 02:17:37;;;;;;;19.13;5.00;;;;;;;7.16;100.00;100964.09;5083527;28;20020;-70
2022/01/31 02:20:10;;;;;;;22.75;4.53;;;;;;;7.15;100.00;100963.28;5081273;28;20055;-70
2022/01/31 02:22:36;;;;;;;26.45;4.47;;;;;;;7.07;100.00;100969.19;5083850;28;20028;-70
2022/01/31 02:25:03;;;;;;;27.58;4.82;;;;;;;7.18;100.00;100956.47;5081277;28;20043;-69
2022/01/31 02:27:31;;;;;;;20.00;4.28;;;;;;;7.16;100.00;100953.19;5082977;28;20116;-69
2022/01/31 02:30:06;;;;;;;20.75;4.32;;;;;;;7.18;100.00;100948.28;5081574;28;20246;-72
2022/01/31 02:34:50;;;;;;;24.67;5.18;;;;;;;7.08;100.00;100957.19;5060971;28;20814;-69
2022/01/31 02:37:18;;;;;;;20.38;4.25;;;;;;;7.14;100.00;100928.09;5055294;28;20038;-70
2022/01/31 02:39:44;;;;;;;24.55;4.22;;;;;;;7.06;100.00;100931.28;5058836;28;20114;-69
2022/01/31 02:42:09;;;;;;;20.58;4.65;;;;;;;7.02;100.00;100930.13;5059409;28;20167;-70
2022/01/31 02:44:39;;;;;;;27.30;4.28;;;;;;;7.15;100.00;100914.22;5060369;28;20472;-70
2022/01/31 02:47:10;;;;;;;19.10;4.75;;;;;;;7.16;100.00;100925.94;5057394;28;20021;-70
2022/01/31 02:49:44;;;;;;;23.55;3.88;;;;;;;7.14;100.00;100933.53;5059132;28;20025;-70
2022/01/31 02:52:13;;;;;;;17.50;4.38;;;;;;;7.12;100.00;100946.63;5055357;28;20029;-70
2022/01/31 02:54:38;;;;;;;24.20;4.25;;;;;;;7.03;100.00;100920.88;5056967;28;20095;-71
2022/01/31 02:57:04;;;;;;;20.13;4.03;;;;;;;7.09;100.00;100922.59;5040688;28;20502;-70
2022/01/31 02:59:31;;;;;;;19.85;4.15;;;;;;;7.04;100.00;100937.00;5058551;28;20037;-69
2022/01/31 03:02:01;;;;;;;21.42;4.10;;;;;;;6.91;100.00;100946.38;5059060;28;20076;-71
2022/01/31 03:04:26;;;;;;;23.33;4.25;;;;;;;7.12;100.00;100898.34;5060235;28;20024;-70
2022/01/31 03:06:53;;;;;;;17.05;3.63;;;;;;;7.09;100.00;100914.41;5058658;28;20040;-69
2022/01/31 03:09:19;;;;;;;17.73;3.58;;;;;;;7.13;100.00;100901.91;5056603;28;20424;-70
2022/01/31 03:11:45;;;;;;;18.42;3.80;;;;;;;7.08;100.00;100905.38;5061046;28;20442;-69
2022/01/31 03:14:10;;;;;;;29.77;4.32;;;;;;;7.02;100.00;100909.16;5060163;28;20025;-71
2022/01/31 03:16:40;;;;;;;21.20;4.53;;;;;;;7.02;100.00;100911.06;5060127;28;20089;-70
2022/01/31 03:19:07;;;;;;;23.35;4.55;;;;;;;7.09;100.00;100914.41;5059143;28;20114;-71
2022/01/31 03:21:32;;;;;;;19.27;3.90;;;;;;;7.14;100.00;100917.19;5059580;28;20031;-70
2022/01/31 03:24:01;;;;;;;20.45;4.60;;;;;;;7.03;100.00;100897.16;5058888;28;20033;-72
2022/01/31 03:26:26;;;;;;;21.38;4.28;;;;;;;6.96;100.00;100889.19;5060163;28;20037;-70
2022/01/31 03:28:53;;;;;;;21.50;4.15;;;;;;;7.00;100.00;100878.59;5058106;28;20463;-70
2022/01/31 03:31:20;;;;;;;19.38;3.58;;;;;;;6.87;100.00;100879.00;5057748;28;20159;-70
2022/01/31 03:33:47;;;;;;;22.75;3.92;;;;;;;7.09;100.00;100887.16;5058550;28;20056;-70
2022/01/31 03:36:12;;;;;;;18.33;4.57;;;;;;;7.04;100.00;100873.47;5066212;28;20028;-69
2022/01/31 03:38:40;;;;;;;21.58;4.07;;;;;;;6.98;100.00;100857.06;5079943;28;20036;-71
2022/01/31 03:41:11;;;;;;;26.13;4.78;;;;;;;6.99;100.00;100875.06;5076709;28;20120;-70
2022/01/31 03:43:37;;;;;;;27.27;4.65;;;;;;;6.93;100.00;100886.97;5078649;28;20033;-69
2022/01/31 03:46:04;;;;;;;16.17;3.83;;;;;;;6.93;100.00;100872.53;5064479;28;20032;-69
2022/01/31 03:48:29;;;;;;;16.25;3.03;;;;;;;7.07;100.00;100862.06;5065379;28;20035;-69
2022/01/31 03:50:56;;;;;;;23.63;3.78;;;;;;;7.10;100.00;100865.09;5065061;28;20032;-70
2022/01/31 03:53:21;;;;;;;19.17;4.07;;;;;;;7.05;100.00;100861.47;5063518;28;20452;-71
2022/01/31 03:55:47;;;;;;;21.73;3.63;;;;;;;7.06;100.00;100860.41;5046389;28;20040;-70
2022/01/31 03:58:12;;;;;;;19.08;3.92;;;;;;;7.05;100.00;100854.13;5065091;28;20033;-70
2022/01/31 04:00:38;;;;;;;16.63;3.35;;;;;;;6.97;100.00;100851.88;5065547;28;20090;-71
2022/01/31 04:03:03;;;;;;;20.23;3.95;;;;;;;7.01;100.00;100863.91;5065466;28;20028;-70
2022/01/31 04:05:29;;;;;;;20.63;4.00;;;;;;;7.09;100.00;100859.88;5064061;28;20347;-71
2022/01/31 04:07:54;;;;;;;23.70;3.75;;;;;;;7.09;100.00;100849.78;5064054;28;20097;-69
2022/01/31 04:10:20;;;;;;;21.35;4.10;;;;;;;6.95;100.00;100832.22;5061579;28;20063;-71
2022/01/31 04:12:46;;;;;;;23.60;4.78;;;;;;;6.96;100.00;100837.41;5048425;28;20059;-70
2022/01/31 04:15:11;;;;;;;19.25;3.83;;;;;;;7.14;100.00;100833.47;5060956;28;20506;-71
2022/01/31 04:17:38;;;;;;;17.70;3.78;;;;;;;7.11;100.00;100852.25;5067199;28;20090;-70
2022/01/31 04:20:08;;;;;;;17.80;3.88;;;;;;;7.06;100.00;100833.94;5063150;28;20032;-69
2022/01/31 04:22:39;;;;;;;22.60;4.93;;;;;;;7.13;100.00;100828.28;5064333;28;20024;-70
2022/01/31 04:25:13;;;;;;;20.08;3.97;;;;;;;7.13;100.00;100820.94;5061784;28;20031;-70
2022/01/31 04:27:45;;;;;;;20.13;3.78;;;;;;;7.09;100.00;100808.91;5063228;28;20602;-70
2022/01/31 04:30:13;;;;;;;20.25;4.82;;;;;;;7.10;100.00;100809.72;5044817;28;20430;-69
2022/01/31 04:32:38;;;;;;;25.23;4.00;;;;;;;7.03;100.00;100834.47;5064432;28;20112;-70
2022/01/31 04:35:08;;;;;;;18.45;3.60;;;;;;;6.91;100.00;100818.28;5059970;28;20257;-69
2022/01/31 04:37:33;;;;;;;20.60;4.38;;;;;;;7.02;100.00;100824.66;5064801;28;20024;-70
2022/01/31 04:40:01;;;;;;;19.33;4.03;;;;;;;6.97;100.00;100822.72;5061178;28;20052;-72
2022/01/31 04:42:27;;;;;;;24.20;4.88;;;;;;;6.51;100.00;100830.41;5064239;28;20600;-70
2022/01/31 04:44:55;;;;;;;23.60;4.32;;;;;;;6.43;100.00;100847.22;5064265;28;20050;-70
2022/01/31 04:47:20;;;;;;;26.20;3.85;;;;;;;6.16;100.00;100825.34;5028079;28;20079;-69
2022/01/31 04:49:46;;;;;;;28.23;4.80;;;;;;;6.23;100.00;100864.94;5064520;28;20390;-70
2022/01/31 04:52:11;;;;;;;20.63;4.30;;;;;;;6.06;100.00;100854.06;5060644;28;20032;-70
2022/01/31 04:54:37;;;;;;;18.65;4.03;;;;;;;5.90;100.00;100863.06;5062844;28;20117;-70
2022/01/31 04:57:03;;;;;;;21.77;4.57;;;;;;;5.87;100.00;100845.38;5062818;28;20483;-71
2022/01/31 04:59:29;;;;;;;22.40;4.20;;;;;;;6.13;100.00;100831.31;5061891;28;20036;-72
2022/01/31 05:01:54;;;;;;;24.35;4.45;;;;;;;6.25;100.00;100860.06;5061240;28;20417;-71
2022/01/31 05:04:20;;;;;;;26.88;4.30;;;;;;;6.60;100.00;100823.41;5046629;28;20020;-71
2022/01/31 05:06:47;;;;;;;20.35;5.03;;;;;;;6.71;100.00;100848.06;5046248;28;20477;-70
2022/01/31 05:09:13;;;;;;;27.75;6.20;;;;;;;6.42;100.00;100837.38;5062098;28;20135;-71
2022/01/31 05:11:39;;;;;;;24.17;4.93;;;;;;;6.43;100.00;100825.41;5065051;28;20089;-70
2022/01/31 05:14:04;;;;;;;27.33;4.68;;;;;;;6.60;100.00;100820.69;5029899;28;20077;-73
2022/01/31 05:16:29;;;;;;;29.42;5.50;;;;;;;6.59;100.00;100824.50;5027525;28;20506;-71
2022/01/31 05:18:55;;;;;;;21.60;4.10;;;;;;;6.58;100.00;100822.84;5064261;28;20534;-70
2022/01/31 05:21:21;;;;;;;19.10;4.45;;;;;;;6.68;100.00;100821.34;5050767;28;20048;-70
2022/01/31 05:23:48;;;;;;;23.15;4.82;;;;;;;6.71;100.00;100818.09;5067645;28;20024;-69
2022/01/31 05:26:14;;;;;;;21.00;4.80;;;;;;;6.81;100.00;100848.97;5060730;28;20090;-70
2022/01/31 05:28:39;;;;;;;24.63;5.55;;;;;;;6.80;100.00;100811.94;5047494;28;20740;-70
2022/01/31 05:31:06;;;;;;;19.65;4.72;;;;;;;6.89;100.00;100809.56;5043572;28;20346;-71
2022/01/31 05:33:31;;;;;;;27.40;5.00;;;;;;;6.76;100.00;100820.88;5061818;28;20188;-71
2022/01/31 05:35:57;;;;;;;26.08;4.65;;;;;;;6.84;100.00;100814.97;5061460;28;20094;-71
2022/01/31 05:38:22;;;;;;;32.95;6.60;;;;;;;6.77;100.00;100820.63;5060118;28;20040;-71
2022/01/31 05:40:48;;;;;;;30.60;6.10;;;;;;;6.89;100.00;100812.28;5043218;28;20045;-73
2022/01/31 05:43:13;;;;;;;23.75;5.22;;;;;;;6.77;100.00;100831.50;5060131;28;20202;-71
2022/01/31 05:45:39;;;;;;;32.03;5.07;;;;;;;6.81;100.00;100831.81;5026974;28;20036;-70
2022/01/31 05:48:04;;;;;;;23.95;5.20;;;;;;;6.75;100.00;100836.38;5029737;28;20483;-71
2022/01/31 05:50:30;;;;;;;24.63;4.72;;;;;;;6.78;100.00;100814.06;5058850;28;20707;-71
2022/01/31 05:52:55;;;;;;;22.23;4.75;;;;;;;6.70;100.00;100811.00;5045413;28;20029;-71
2022/01/31 05:55:21;;;;;;;26.05;4.78;;;;;;;6.88;100.00;100812.53;5059387;28;20044;-71
2022/01/31 05:57:46;;;;;;;31.35;5.82;;;;;;;6.88;100.00;100848.78;5063874;28;20146;-72
2022/01/31 06:00:12;;;;;;;25.67;5.15;;;;;;;6.86;100.00;100810.06;5042027;28;20081;-71
2022/01/31 06:02:39;;;;;;;24.58;4.53;;;;;;;6.87;100.00;100803.53;5061254;28;20032;-71
2022/01/31 06:05:08;;;;;;;30.30;5.15;;;;;;;6.86;100.00;100820.97;5060870;28;20029;-72
2022/01/31 06:07:33;;;;;;;22.92;4.53;;;;;;;6.88;100.00;100807.88;5044062;28;20040;-71
2022/01/31 06:10:00;;;;;;;28.52;5.05;;;;;;;6.86;100.00;100817.41;5058667;28;20495;-69
2022/01/31 06:12:25;;;;;;;27.75;5.05;;;;;;;6.80;100.00;100821.97;5005026;28;20029;-70
2022/01/31 06:14:51;;;;;;;26.10;5.10;;;;;;;6.77;100.00;100838.84;5024665;28;20458;-68
2022/01/31 06:17:16;;;;;;;22.55;4.47;;;;;;;6.83;100.00;100816.03;5022076;28;20036;-69
2022/01/31 06:19:42;;;;;;;27.75;5.05;;;;;;;6.78;100.00;100810.53;5041163;28;20028;-70
2022/01/31 06:22:07;;;;;;;26.40;6.07;;;;;;;6.81;100.00;100793.66;5040844;28;20403;-69
2022/01/31 06:24:32;;;;;;;30.08;4.40;;;;;;;6.84;100.00;100812.22;5040733;28;20494;-72
2022/01/31 06:26:59;;;;;;;22.15;4.80;;;;;;;6.74;100.00;100815.69;5041247;28;20719;-72
2022/01/31 06:29:26;;;;;;;22.05;4.07;;;;;;;6.42;100.00;100835.47;5040346;28;20563;-70
2022/01/31 06:31:52;;;;;;;28.77;6.55;;;;;;;6.01;100.00;100824.06;5022787;28;20037;-70
2022/01/31 06:34:18;;;;;;;30.23;5.75;;;;;;;5.80;100.00;100850.16;5039658;28;20044;-69
2022/01/31 06:36:44;;;;;;;29.30;5.35;;;;;;;5.64;100.00;100851.84;5027260;28;20398;-71
2022/01/31 06:39:09;;;;;;;28.40;5.72;;;;;;;5.15;100.00;100857.84;5062034;28;20483;-69
2022/01/31 06:41:35;;;;;;;35.65;6.28;;;;;;;5.00;100.00;100846.72;5061971;28;20722;-72
2022/01/31 06:44:00;;;;;;;36.88;7.35;;;;;;;5.14;100.00;100845.31;5062814;28;20025;-71
2022/01/31 06:46:26;;;;;;;32.65;6.22;;;;;;;5.36;100.00;100854.63;5058642;28;20032;-71
2022/01/31 06:48:53;;;;;;;40.55;6.45;;;;;;;5.46;100.00;100823.00;5028280;28;20028;-73
2022/01/31 06:51:18;;;;;;;30.67;6.50;;;;;;;5.42;100.00;100835.44;5047318;28;20032;-69
2022/01/31 06:53:48;;;;;;;37.47;7.50;;;;;;;5.53;100.00;100861.72;5060520;28;20104;-71
2022/01/31 06:56:13;;;;;;;33.45;5.75;;;;;;;5.69;100.00;100842.94;5058127;28;20446;-71
2022/01/31 06:58:39;;;;;;;42.38;7.10;;;;;;;5.82;100.00;100858.06;5040091;28;20452;-72
2022/01/31 07:01:04;;;;;;;45.72;7.70;;;;;;;5.83;100.00;100860.53;5005847;28;20381;-71
2022/01/31 07:03:30;;;;;;;36.38;6.55;;;;;;;5.95;100.00;100863.19;5024919;28;20178;-71
2022/01/31 07:05:55;;;;;;;44.03;6.78;;;;;;;5.89;100.00;100869.59;5047543;28;20452;-70
2022/01/31 07:08:22;;;;;;;31.13;6.15;;;;;;;5.97;100.00;100858.31;5024332;28;20140;-71
2022/01/31 07:10:52;;;;;;;40.17;6.28;;;;;;;6.13;100.00;100859.34;5039329;28;20060;-69
2022/01/31 07:15:58;;;;;;;37.70;6.45;;;;;;;6.14;100.00;100871.06;5060497;28;20612;-72
2022/01/31 07:18:23;;;;;;;35.95;6.43;;;;;;;6.31;100.00;100851.94;5060988;28;20070;-70
2022/01/31 07:20:52;;;;;;;35.55;6.53;;;;;;;6.29;100.00;100856.84;5053759;28;20102;-70
2022/01/31 07:23:49;;;;;;;42.33;7.47;;;;;;;6.31;100.00;100860.13;5042607;28;20116;-71
2022/01/31 07:26:14;;;;;;;33.63;5.95;;;;;;;5.91;100.00;100853.03;5044097;28;20032;-72
2022/01/31 07:28:39;;;;;;;37.28;7.25;;;;;;;5.69;100.00;100862.78;5044994;28;20049;-71
2022/01/31 07:31:04;;;;;;;30.08;5.63;;;;;;;5.82;100.00;100869.78;5061331;28;20036;-71
2022/01/31 07:33:30;;;;;;;36.65;7.05;;;;;;;5.86;100.00;100886.44;5043692;28;20132;-71
2022/01/31 07:35:56;;;;;;;31.95;7.10;;;;;;;5.84;100.00;100900.28;5039079;28;20039;-70
2022/01/31 07:38:22;;;;;;;38.05;7.60;;;;;;;5.93;100.00;100878.09;5026311;28;20033;-71
2022/01/31 07:40:48;;;;;;;28.75;6.93;;;;;;;6.06;100.00;100875.03;5008209;28;20123;-70
2022/01/31 07:43:14;;;;;;;36.72;6.63;;;;;;;6.14;100.00;100881.97;5034148;28;20126;-70
2022/01/31 07:45:39;;;;;;;33.10;6.30;;;;;;;6.20;100.00;100889.13;5061486;28;20478;-68
2022/01/31 07:48:05;;;;;;;27.48;4.88;;;;;;;6.07;100.00;100918.34;5064359;28;20036;-70
2022/01/31 07:50:32;;;;;;;29.60;6.55;;;;;;;6.12;100.00;100912.16;5058208;28;20040;-69
2022/01/31 07:52:57;;;;;;;40.10;7.45;;;;;;;6.20;100.00;100924.53;5027843;28;20029;-71
2022/01/31 07:55:26;;;;;;;37.88;6.53;;;;;;;6.45;100.00;100883.19;5042382;28;20333;-70
2022/01/31 07:57:51;;;;;;;36.15;7.70;;;;;;;6.29;100.00;100884.06;5043788;28;20037;-70
2022/01/31 08:00:17;;;;;;;30.83;6.28;;;;;;;6.51;100.00;100890.34;5042381;28;20284;-70
2022/01/31 08:02:42;;;;;;;38.88;7.00;;;;;;;6.48;100.00;100904.47;5041151;28;20563;-70
2022/01/31 08:05:09;;;;;;;34.33;7.85;;;;;;;6.33;100.00;100896.06;5056752;28;20123;-68
2022/01/31 08:07:35;;;;;;;34.38;6.82;;;;;;;6.21;100.00;100913.34;5063720;28;20025;-69
2022/01/31 08:10:02;;;;;;;36.90;6.57;;;;;;;5.98;100.00;100927.19;5044381;28;20063;-70
2022/01/31 08:12:28;;;;;;;36.30;6.47;;;;;;;6.11;100.00;100931.44;5062665;28;20448;-70
2022/01/31 08:15:00;;;;;;;43.15;7.35;;;;;;;6.01;100.00;100932.13;5065443;28;20063;-70
2022/01/31 08:17:26;;;;;;;30.08;6.90;;;;;;;6.10;100.00;100922.47;5061671;28;20032;-70
2022/01/31 08:19:52;;;;;;;37.33;7.20;;;;;;;6.05;100.00;100955.88;5043557;28;20035;-69
2022/01/31 08:22:17;;;;;;;39.20;7.35;;;;;;;6.30;100.00;100946.44;5042438;28;20166;-71
2022/01/31 08:24:43;;;;;;;37.10;6.85;;;;;;;6.22;100.00;100936.78;5040574;28;20365;-71
2022/01/31 08:27:08;;;;;;;32.42;6.38;;;;;;;6.35;100.00;100945.69;5045476;28;20137;-70
2022/01/31 08:29:37;;;;;;;41.58;8.07;;;;;;;6.29;100.00;100950.22;5042830;28;20029;-69
2022/01/31 08:32:08;;;;;;;45.83;9.85;;;;;;;6.25;100.00;100959.97;5046080;28;20045;-70
2022/01/31 08:37:18;;;;;;;37.33;6.97;;;;;;;6.49;100.00;100944.22;5041832;28;20036;-70
2022/01/31 08:39:43;;;;;;;43.72;8.52;;;;;;;6.44;100.00;100972.25;5040583;28;20443;-70
2022/01/31 08:42:09;;;;;;;38.90;6.70;;;;;;;6.43;100.00;100945.25;5044482;28;20344;-70
2022/01/31 08:44:34;;;;;;;42.58;7.47;;;;;;;6.53;100.00;100983.50;5042342;28;20029;-71
2022/01/31 08:47:00;;;;;;;37.17;6.40;;;;;;;6.78;100.00;100941.31;5058119;28;20484;-69
2022/01/31 08:49:33;;;;;;;52.25;8.52;;;;;;;6.56;100.00;100966.66;5064899;28;20043;-70
2022/01/31 08:51:59;;;;;;;48.72;9.73;;;;;;;6.61;100.00;100946.84;5064628;28;20028;-70
2022/01/31 08:54:27;;;;;;;47.45;7.63;;;;;;;6.49;100.00;100948.84;5044555;28;20425;-68
2022/01/31 08:56:53;;;;;;;41.50;9.02;;;;;;;6.32;100.00;100959.81;5045828;28;20028;-70
2022/01/31 08:59:22;;;;;;;42.92;8.38;;;;;;;6.41;100.00;100955.56;5049774;28;20030;-69
2022/01/31 09:02:05;;;;;;;49.20;8.18;;;;;;;6.54;100.00;100993.34;5023528;28;20435;-72
2022/01/31 09:04:47;;;;;;;43.45;8.80;;;;;;;6.58;100.00;100982.75;5041504;28;20479;-72
2022/01/31 09:07:13;;;;;;;42.75;8.27;;;;;;;6.63;100.00;100989.09;5040540;28;20025;-71
2022/01/31 09:09:39;;;;;;;40.90;8.82;;;;;;;6.42;100.00;101014.41;5038689;28;20117;-70
2022/01/31 09:12:07;;;;;;;49.58;8.93;;;;;;;6.67;100.00;100991.31;5042066;28;20375;-70
2022/01/31 09:14:33;;;;;;;43.03;8.70;;;;;;;6.70;100.00;100994.34;5041477;28;20031;-70
2022/01/31 09:16:58;;;;;;;48.17;8.30;;;;;;;6.55;100.00;100989.53;5042266;28;20029;-71
2022/01/31 09:19:24;;;;;;;48.65;9.63;;;;;;;6.61;100.00;101009.50;5043033;28;20112;-71
2022/01/31 09:21:49;;;;;;;46.80;9.63;;;;;;;6.79;100.00;101003.75;5038401;28;20305;-71
2022/01/31 09:24:15;;;;;;;46.85;9.32;;;;;;;6.75;100.00;101018.13;5041975;28;20036;-71
2022/01/31 09:26:40;;;;;;;49.13;9.45;;;;;;;6.90;100.00;101010.13;5040865;28;20078;-70
2022/01/31 09:29:05;;;;;;;46.38;9.02;;;;;;;6.61;100.00;101026.66;5026010;28;20032;-68
2022/01/31 09:31:34;;;;;;;38.63;7.25;;;;;;;6.73;100.00;101042.09;5041639;28;20087;-69
2022/01/31 09:34:00;;;;;;;44.03;8.32;;;;;;;6.77;100.00;101030.44;5008618;28;20438;-70
2022/01/31 09:36:27;;;;;;;47.22;8.23;;;;;;;6.63;100.00;101021.78;5040558;28;20052;-71
2022/01/31 09:38:57;;;;;;;47.30;8.32;;;;;;;6.78;100.00;101053.06;5041643;28;20459;-70
2022/01/31 09:41:25;;;;;;;38.05;8.52;;;;;;;6.84;100.00;101037.56;5025649;28;20029;-70
2022/01/31 09:44:20;;;;;;;50.58;9.30;;;;;;;6.65;100.00;101045.25;5039909;28;20398;-70
2022/01/31 09:47:03;;;;;;;46.30;9.00;;;;;;;6.73;100.00;101047.53;5035194;28;20033;-69
2022/01/31 09:49:30;;;;;;;46.15;8.48;;;;;;;6.76;100.00;101066.94;5041411;28;20033;-71
2022/01/31 09:51:56;;;;;;;39.78;8.57;;;;;;;6.68;100.00;101066.53;5022306;28;20336;-70
2022/01/31 09:54:24;;;;;;;51.25;10.68;;;;;;;6.64;100.00;101055.31;5041037;28;20632;-69
2022/01/31 09:56:49;;;;;;;49.95;8.45;;;;;;;6.79;100.00;101074.59;5039686;28;20655;-70
2022/01/31 09:59:16;;;;;;;54.45;10.18;;;;;;;6.69;100.00;101099.00;5044084;28;20493;-69
2022/01/31 10:01:47;;;;;;;47.53;10.40;;;;;;;6.29;100.00;101123.66;5049620;28;20050;-70
2022/01/31 10:04:18;;;;;;;50.10;10.20;;;;;;;6.27;100.00;101142.16;5043032;28;20029;-70
2022/01/31 10:06:46;;;;;;;45.05;9.15;;;;;;;6.38;100.00;101095.78;5039190;28;20029;-70
2022/01/31 10:09:19;;;;;;;44.25;9.68;;;;;;;6.41;100.00;101099.91;5041510;28;20210;-70
2022/01/31 10:11:55;;;;;;;44.13;8.23;;;;;;;6.61;100.00;101138.38;5040255;28;20455;-71
2022/01/31 10:17:23;;;;;;;45.40;9.48;;;;;;;6.56;100.00;101123.81;5042893;28;20148;-71
2022/01/31 10:19:50;;;;;;;54.10;9.65;;;;;;;6.64;100.00;101126.16;5040102;28;20460;-70
2022/01/31 10:22:22;;;;;;;53.00;8.52;;;;;;;6.60;100.00;101160.41;5041891;28;20433;-69
2022/01/31 10:24:51;;;;;;;41.17;9.20;;;;;;;6.59;100.00;101124.19;5042819;28;20372;-71
2022/01/31 10:27:33;;;;;;;47.10;9.60;;;;;;;6.70;100.00;101157.03;5060115;28;20067;-71
2022/01/31 10:30:24;;;;;;;47.53;8.90;;;;;;;6.50;100.00;101168.41;5059495;28;20113;-71
2022/01/31 10:32:51;;;;;;;41.25;9.38;;;;;;;6.63;100.00;101141.66;5061406;28;20032;-70
2022/01/31 10:35:31;;;;;;;54.33;12.65;;;;;;;6.37;100.00;101147.78;5058041;28;20048;-70
2022/01/31 10:38:02;;;;;;;48.40;11.05;;;;;;;6.58;100.00;101165.28;5062340;28;20032;-68
2022/01/31 10:51:56;;;;;;;;;;;;;;;6.62;100.00;101164.56;5060892;28;20040;-70
2022/01/31 10:56:59;;;;;;;46.03;10.00;;;;;;;6.48;100.00;101167.81;5063960;28;20111;-70
2022/01/31 10:59:27;;;;;;;59.40;11.13;;;;;;;6.49;100.00;101186.63;5066989;28;20061;-69
2022/01/31 11:01:55;;;;;;;44.28;10.20;;;;;;;6.48;100.00;101176.84;5060743;28;20104;-69
2022/01/31 11:04:21;;;;;;;46.17;11.20;;;;;;;6.40;100.00;101188.13;5063047;28;20437;-68
2022/01/31 11:06:49;;;;;;;62.47;11.52;;;;;;;6.87;100.00;101197.88;5062967;28;20516;-68
2022/01/31 11:09:17;;;;;;;58.63;12.10;;;;;;;6.42;100.00;101194.16;5064365;28;20033;-68
2022/01/31 11:11:46;;;;;;;43.88;9.60;;;;;;;6.30;100.00;101213.28;5061948;28;20027;-69
2022/01/31 11:14:14;;;;;;;39.83;10.57;;;;;;;6.18;100.00;101204.34;5066749;28;20035;-69
2022/01/31 11:16:42;;;;;;;56.33;10.98;;;;;;;6.34;100.00;101189.94;5062841;28;20515;-69
2022/01/31 11:19:10;;;;;;;68.03;12.18;;;;;;;5.88;100.00;101211.63;5063836;28;20107;-69
2022/01/31 11:21:39;;;;;;;57.83;11.32;;;;;;;5.88;100.00;101214.34;5052565;28;20121;-70
2022/01/31 11:24:25;;;;;;;55.97;11.73;;;;;;;5.86;100.00;101219.22;5040930;28;20051;-70
2022/01/31 11:26:56;;;;;;;57.55;12.70;;;;;;;5.69;100.00;101261.88;5044475;28;20115;-70
2022/01/31 11:29:22;;;;;;;52.83;11.32;;;;;;;5.62;100.00;101233.94;5046447;28;20029;-69
2022/01/31 11:31:48;;;;;;;59.08;11.93;;;;;;;5.78;100.00;101235.94;5025830;28;20124;-71
2022/01/31 11:34:14;;;;;;;54.97;11.02;;;;;;;5.82;100.00;101267.03;5043087;28;20499;-71
2022/01/31 11:36:42;;;;;;;52.30;10.18;;;;;;;5.72;100.00;101258.66;5041710;28;20029;-70
2022/01/31 11:39:11;;;;;;;50.28;10.35;;;;;;;5.41;100.00;101247.13;5025692;28;20021;-68
2022/01/31 11:41:45;;;;;;;49.70;9.93;;;;;;;5.29;100.00;101271.56;5043801;28;20414;-68
2022/01/31 11:44:19;;;;;;;60.22;11.15;;;;;;;5.50;100.00;101263.88;5045289;28;20086;-71